EST,Max TemperatureF,Mean TemperatureF,Min TemperatureF,Max Dew PointF,MeanDew PointF,Min DewpointF,Max Humidity, Mean Humidity, Min Humidity, Max Sea Level PressureIn, Mean Sea Level PressureIn, Min Sea Level PressureIn, Max VisibilityMiles, Mean VisibilityMiles, Min VisibilityMiles, Max Wind SpeedMPH, Mean Wind SpeedMPH, Max Gust SpeedMPH,PrecipitationIn, CloudCover, Events, WindDirDegrees
2014-1-1,31,26,20,19,12,6,77,57,42,30.40,30.33,30.25,10,10,6,13,6,16,T,6,,272
2014-1-2,24,15,6,18,9,0,86,77,73,30.27,30.06,29.80,10,2,0,16,10,23,0.03,8,Snow,7
2014-1-3,13,3,-7,0,-4,-13,79,71,49,30.48,30.00,29.78,10,4,1,17,11,28,T,4,Snow,6
2014-1-4,26,9,-9,5,-3,-15,83,61,34,30.51,30.40,30.29,10,10,9,9,2,,0.00,0,,176
2014-1-5,48,25,2,46,19,-1,96,80,52,30.31,30.12,29.74,10,6,1,8,1,,0.02,6,Rain,53
2014-1-6,58,40,22,54,37,5,100,79,42,29.71,29.53,29.35,10,7,0,25,8,34,0.33,8,Fog-Rain-Snow,228
2014-1-7,22,14,6,1,-11,-14,50,40,32,30.34,30.09,29.72,10,10,10,23,16,33,0.00,1,,255
2014-1-8,22,15,7,4,-2,-8,58,48,38,30.51,30.45,30.35,10,10,10,14,9,17,0.00,1,,233
2014-1-9,32,22,11,12,8,4,80,59,37,30.64,30.58,30.47,10,10,6,8,4,,0.00,1,,267
2014-1-10,33,25,16,31,24,13,92,82,74,30.57,30.41,30.22,8,4,0,4,0,,0.09,8,Fog-Snow,178
2014-1-11,60,47,33,56,44,30,100,91,77,30.21,29.74,29.29,10,5,0,13,3,25,0.47,8,Fog-Rain,194
2014-1-12,53,43,33,46,29,23,83,58,48,30.04,29.72,29.37,10,10,10,20,10,29,0.00,5,,272
2014-1-13,49,37,25,34,30,23,89,68,51,30.11,30.01,29.85,10,10,7,10,4,,0.00,0,,172
2014-1-14,48,40,31,43,40,30,100,92,61,29.83,29.75,29.67,10,2,0,9,3,,0.49,7,Fog-Rain,154
2014-1-15,49,37,25,36,30,23,100,87,54,29.98,29.90,29.84,10,4,0,8,1,,0.00,2,Fog,181
2014-1-16,40,34,27,37,30,25,93,82,70,29.95,29.90,29.87,10,7,1,10,6,,T,8,Rain-Snow,360
2014-1-17,43,32,21,28,24,18,92,76,47,29.97,29.92,29.89,10,8,5,7,1,,0.00,2,,216
2014-1-18,35,30,25,31,27,18,93,84,61,29.86,29.73,29.66,10,4,0,10,1,18,0.02,7,Fog-Snow,309
2014-1-19,35,29,23,21,18,15,77,63,54,29.80,29.70,29.60,10,10,2,16,7,24,T,5,Snow,218
2014-1-20,42,35,28,29,20,8,70,52,43,29.90,29.66,29.56,10,10,10,18,9,28,T,8,,243
2014-1-21,28,19,10,9,1,-7,70,55,37,30.06,29.98,29.91,10,6,1,17,11,25,T,7,Snow,14
2014-1-22,16,9,1,-5,-7,-12,63,51,39,30.00,29.90,29.82,10,10,10,17,12,29,0.00,0,,358
2014-1-23,21,12,2,0,-2,-4,80,56,40,30.25,30.13,30.01,10,10,7,16,3,22,0.00,3,,256
2014-1-24,21,15,8,-1,-4,-7,61,45,30,30.35,30.23,30.04,10,10,10,13,8,26,0.00,0,,237
2014-1-25,24,18,12,19,13,-3,86,70,38,29.99,29.55,29.42,10,5,0,10,7,21,0.05,5,Fog-Snow,192
2014-1-26,26,19,11,15,4,-3,85,54,38,29.88,29.76,29.45,10,10,8,20,9,29,T,4,,238
2014-1-27,40,29,17,25,10,-8,78,54,28,30.09,29.77,29.58,10,10,9,17,4,29,0.00,4,,283
2014-1-28,17,13,8,-6,-8,-10,53,38,30,30.37,30.27,30.11,10,10,10,14,8,22,0.00,2,,259
2014-1-29,26,19,11,2,-5,-9,59,38,24,30.28,30.15,30.04,10,10,10,14,6,20,0.00,2,,236
2014-1-30,30,17,3,9,1,-4,73,48,32,30.45,30.33,30.17,10,10,8,8,5,,0.00,0,,192
2014-1-31,40,31,22,22,12,5,69,47,33,30.22,30.12,30.07,10,10,7,13,5,,0.00,3,,213